Time;durP1;ratioP1;P1;durP2;ratioP2;P2;SDS_P1;SDS_P2;PMS_P1;PMS_P2;Temp;Humidity;BMP_temperature;BMP_pressure;BME280_temperature;BME280_humidity;BME280_pressure;Samples;Min_cycle;Max_cycle;Signal;HPM_P1;HPM_P2
2021/06/20 00:01:03;;;;;;;8.10;6.20;;;;;;;21.97;62.04;100482.01;93107;1208;67593;-62
2021/06/20 00:03:12;;;;;;;6.40;5.80;;;;;;;21.85;62.10;100481.30;93133;1208;85771;-63
2021/06/20 00:05:24;;;;;;;8.20;6.60;;;;;;;21.76;62.54;100479.03;93112;1208;74814;-61
2021/06/20 00:07:31;;;;;;;9.10;7.10;;;;;;;21.71;62.65;100483.66;93123;1215;83064;-61
2021/06/20 00:09:39;;;;;;;9.50;8.40;;;;;;;21.62;63.12;100485.20;93124;1208;65605;-69
2021/06/20 00:11:51;;;;;;;10.30;9.20;;;;;;;21.49;63.25;100483.70;93151;1206;68035;-70
2021/06/20 00:14:00;;;;;;;10.30;8.00;;;;;;;21.44;63.03;100478.16;93135;1206;84740;-70
2021/06/20 00:16:08;;;;;;;7.40;6.70;;;;;;;21.39;63.43;100483.61;93157;1208;73821;-69
2021/06/20 00:18:16;;;;;;;9.20;7.00;;;;;;;21.30;63.72;100482.39;93147;1208;80403;-69
2021/06/20 00:20:28;;;;;;;7.00;6.30;;;;;;;21.24;63.96;100482.58;93116;1208;66114;-70
2021/06/20 00:22:35;;;;;;;7.00;6.30;;;;;;;21.21;64.12;100480.34;93159;1214;68412;-70
2021/06/20 00:24:46;;;;;;;7.00;6.30;;;;;;;21.12;64.23;100478.05;93131;1208;84980;-70
2021/06/20 00:26:54;;;;;;;7.30;6.20;;;;;;;21.03;64.46;100479.58;93158;1208;76208;-70
2021/06/20 00:29:01;;;;;;;7.80;6.60;;;;;;;20.96;64.81;100480.83;93123;1208;80715;-71
2021/06/20 00:31:10;;;;;;;7.20;6.60;;;;;;;20.89;64.86;100482.95;93141;1213;65986;-71
2021/06/20 00:33:18;;;;;;;6.90;6.20;;;;;;;20.80;65.07;100479.81;93048;1213;68050;-69
2021/06/20 00:35:26;;;;;;;8.60;6.70;;;;;;;20.72;65.43;100479.41;93015;1208;86218;-68
2021/06/20 00:37:33;;;;;;;6.90;6.30;;;;;;;20.65;65.51;100482.36;93112;1208;75884;-69
2021/06/20 00:39:41;;;;;;;7.00;5.90;;;;;;;20.65;65.69;100481.53;93032;1217;81954;-70
2021/06/20 00:41:49;;;;;;;7.70;6.70;;;;;;;20.58;65.96;100490.77;93142;1215;66714;-70
2021/06/20 00:44:01;;;;;;;8.20;7.40;;;;;;;20.56;66.08;100479.22;93059;1209;69479;-69
2021/06/20 00:46:09;;;;;;;6.60;5.90;;;;;;;20.48;66.42;100481.55;93146;1208;85507;-70
2021/06/20 00:48:17;;;;;;;7.30;6.60;;;;;;;20.43;66.20;100476.84;93065;1208;75734;-61
2021/06/20 00:50:26;;;;;;;9.10;6.90;;;;;;;20.38;66.70;100479.48;93103;1208;82653;-62
2021/06/20 00:52:34;;;;;;;7.50;6.80;;;;;;;20.34;66.81;100480.24;93128;1213;65664;-61
2021/06/20 00:54:47;;;;;;;7.60;7.00;;;;;;;20.33;66.76;100492.28;93132;1208;69039;-62
2021/06/20 00:56:58;;;;;;;7.20;6.60;;;;;;;20.26;67.13;100484.25;93150;1208;86169;-61
2021/06/20 00:59:06;;;;;;;7.80;6.40;;;;;;;20.20;67.07;100490.70;93125;1208;75759;-62
2021/06/20 01:01:17;;;;;;;6.50;5.90;;;;;;;20.17;67.33;100488.45;93134;1208;81928;-62
2021/06/20 01:03:24;;;;;;;8.10;6.40;;;;;;;20.11;67.48;100489.44;93145;1206;67453;-63
2021/06/20 01:05:32;;;;;;;8.00;6.50;;;;;;;20.09;67.75;100482.55;93162;1208;68858;-62
2021/06/20 01:07:40;;;;;;;7.10;6.40;;;;;;;20.06;67.67;100483.88;93059;1213;85600;-62
2021/06/20 01:09:50;;;;;;;7.30;6.60;;;;;;;20.03;67.94;100474.23;93120;1208;74632;-72
2021/06/20 01:11:57;;;;;;;7.60;6.90;;;;;;;19.99;68.10;100473.09;93147;1209;81731;-71
2021/06/20 01:14:06;;;;;;;7.00;6.30;;;;;;;19.97;68.02;100471.65;93016;1208;67468;-69
2021/06/20 01:16:15;;;;;;;7.30;6.70;;;;;;;19.94;68.34;100466.69;93138;1209;69126;-70
2021/06/20 01:18:23;;;;;;;8.30;6.80;;;;;;;19.97;68.36;100468.91;93143;1208;86931;-69
2021/06/20 01:20:31;;;;;;;8.10;7.30;;;;;;;19.93;68.41;100465.85;93131;1209;75428;-70
2021/06/20 01:22:40;;;;;;;9.40;7.30;;;;;;;19.91;68.35;100467.98;93151;1208;81974;-72
2021/06/20 01:24:58;;;;;;;7.70;7.00;;;;;;;19.82;68.75;100464.02;93148;1208;67207;-70
2021/06/20 01:27:07;;;;;;;6.70;6.00;;;;;;;19.78;68.71;100460.09;93141;1213;68316;-70
2021/06/20 01:29:17;;;;;;;7.40;6.70;;;;;;;19.76;68.88;100459.52;93116;1208;86133;-61
2021/06/20 01:31:30;;;;;;;16.20;8.80;;;;;;;19.75;68.90;100462.52;93117;1209;74400;-61
2021/06/20 01:33:39;;;;;;;12.10;10.20;;;;;;;19.73;68.93;100456.44;93022;1213;81864;-61
2021/06/20 01:35:49;;;;;;;8.90;8.10;;;;;;;19.69;69.19;100466.25;93141;1208;66946;-63
2021/06/20 01:37:58;;;;;;;10.80;7.50;;;;;;;19.61;69.29;100458.43;93147;1208;70420;-61
2021/06/20 01:40:10;;;;;;;8.10;6.90;;;;;;;19.57;69.41;100459.98;93126;1208;86887;-71
2021/06/20 01:42:19;;;;;;;8.40;7.60;;;;;;;19.56;69.58;100458.34;93130;1215;75233;-70
2021/06/20 01:44:26;;;;;;;8.50;7.60;;;;;;;19.52;69.61;100457.16;93029;1209;82668;-61
2021/06/20 01:46:34;;;;;;;8.60;7.50;;;;;;;19.47;69.87;100457.91;93139;1208;66508;-61
2021/06/20 01:48:42;;;;;;;8.60;7.50;;;;;;;19.42;69.91;100463.27;93154;1208;67885;-62
2021/06/20 01:50:50;;;;;;;7.60;6.50;;;;;;;19.36;70.00;100459.59;93072;1207;86903;-61
2021/06/20 01:53:08;;;;;;;8.60;6.90;;;;;;;19.36;70.06;100450.55;93165;1210;74409;-63
2021/06/20 01:55:18;;;;;;;7.90;7.10;;;;;;;19.34;70.22;100453.51;93153;1208;81912;-73
2021/06/20 01:57:28;;;;;;;7.20;6.50;;;;;;;19.34;70.41;100450.77;93141;1209;66915;-70
2021/06/20 01:59:36;;;;;;;8.10;7.30;;;;;;;19.31;70.52;100458.67;93110;1209;69056;-71
2021/06/20 02:01:44;;;;;;;7.70;6.90;;;;;;;19.29;70.48;100458.90;93124;1208;85409;-71
2021/06/20 02:03:51;;;;;;;7.00;6.20;;;;;;;19.23;70.55;100459.03;93133;1208;75184;-62
2021/06/20 02:06:02;;;;;;;10.20;6.50;;;;;;;19.20;70.66;100456.81;93118;1208;81092;-62
2021/06/20 02:08:12;;;;;;;8.00;6.40;;;;;;;19.17;70.76;100460.84;93184;1208;65734;-69
2021/06/20 02:10:20;;;;;;;7.70;6.70;;;;;;;19.10;70.85;100460.16;93113;1208;69337;-70
2021/06/20 02:12:30;;;;;;;8.70;6.90;;;;;;;19.08;71.04;100453.27;93154;1213;86204;-71
2021/06/20 02:14:43;;;;;;;9.30;7.50;;;;;;;19.09;71.20;100447.53;93017;1213;76044;-61
2021/06/20 02:16:51;;;;;;;8.80;7.50;;;;;;;19.14;71.20;100450.40;93122;1208;81517;-62
2021/06/20 02:18:58;;;;;;;10.30;9.20;;;;;;;19.23;71.43;100445.34;93161;1208;67337;-71
2021/06/20 02:21:06;;;;;;;13.70;9.90;;;;;;;19.28;71.61;100448.20;93132;1214;69246;-71
2021/06/20 02:23:14;;;;;;;9.30;8.50;;;;;;;19.28;71.66;100454.48;93075;1208;84957;-68
2021/06/20 02:25:25;;;;;;;9.00;7.90;;;;;;;19.29;71.49;100450.67;93088;1209;75282;-71
2021/06/20 02:27:33;;;;;;;9.10;8.20;;;;;;;19.27;71.52;100452.84;93011;1213;81357;-71
2021/06/20 02:29:41;;;;;;;8.80;7.90;;;;;;;19.25;71.49;100459.64;93155;1208;68192;-62
2021/06/20 02:31:49;;;;;;;9.70;7.90;;;;;;;19.21;71.62;100464.77;93096;1208;70034;-62
2021/06/20 02:33:57;;;;;;;8.60;7.80;;;;;;;19.23;71.65;100462.61;93076;1209;86119;-61
2021/06/20 02:36:05;;;;;;;9.40;8.50;;;;;;;19.26;71.68;100458.55;93152;1204;74477;-61
2021/06/20 02:38:13;;;;;;;9.00;8.20;;;;;;;19.31;71.71;100469.63;93182;1209;82420;-62
2021/06/20 02:40:22;;;;;;;10.70;9.60;;;;;;;19.35;71.89;100471.63;93071;1208;67604;-62
2021/06/20 02:42:30;;;;;;;9.80;8.30;;;;;;;19.39;71.98;100474.75;93101;1208;67973;-62
2021/06/20 02:44:39;;;;;;;9.90;8.80;;;;;;;19.43;71.87;100476.73;93085;1208;84473;-71
2021/06/20 02:46:47;;;;;;;9.50;8.70;;;;;;;19.49;71.83;100474.92;93110;1208;74606;-70
2021/06/20 02:48:54;;;;;;;10.10;9.10;;;;;;;19.50;72.07;100483.98;93050;1213;81754;-70
2021/06/20 02:51:02;;;;;;;12.80;9.30;;;;;;;19.57;72.12;100484.66;93110;1208;67249;-71
2021/06/20 02:53:09;;;;;;;9.20;8.40;;;;;;;19.61;71.97;100491.32;93140;1208;69783;-63
2021/06/20 02:55:20;;;;;;;9.90;8.70;;;;;;;19.64;72.13;100490.83;93029;1208;84489;-63
2021/06/20 02:57:32;;;;;;;10.10;9.10;;;;;;;19.70;72.24;100493.39;93122;1208;74987;-61
2021/06/20 02:59:43;;;;;;;9.70;8.80;;;;;;;19.81;72.28;100489.76;93165;1208;81266;-70
2021/06/20 03:01:51;;;;;;;10.60;8.70;;;;;;;19.90;72.11;100498.41;93165;1214;65232;-70
2021/06/20 03:04:02;;;;;;;9.50;8.60;;;;;;;19.95;72.07;100498.50;93153;1209;67966;-71
2021/06/20 03:06:13;;;;;;;9.50;8.50;;;;;;;19.96;71.81;100498.27;93047;1208;86222;-71
2021/06/20 03:08:21;;;;;;;9.70;8.80;;;;;;;19.93;72.01;100495.18;93130;1208;75506;-61
2021/06/20 03:10:29;;;;;;;9.30;8.20;;;;;;;19.92;71.88;100490.77;93148;1206;80554;-61
2021/06/20 03:12:38;;;;;;;11.10;8.70;;;;;;;20.06;72.07;100485.78;93142;1208;67610;-63
2021/06/20 03:14:47;;;;;;;11.40;9.00;;;;;;;20.12;71.97;100482.89;93154;1208;68524;-64
2021/06/20 03:16:55;;;;;;;10.10;9.10;;;;;;;20.20;71.85;100484.38;93015;1209;85725;-62
2021/06/20 03:19:02;;;;;;;9.90;8.90;;;;;;;20.31;71.79;100487.06;93032;1212;74386;-62
2021/06/20 03:21:13;;;;;;;13.10;8.90;;;;;;;20.43;71.74;100489.72;93075;1208;81879;-62
2021/06/20 03:23:21;;;;;;;9.70;8.50;;;;;;;20.54;71.56;100486.88;93017;1208;67747;-69
2021/06/20 03:25:32;;;;;;;10.10;9.00;;;;;;;20.65;71.63;100489.77;93139;1208;68727;-70
2021/06/20 03:27:39;;;;;;;9.10;8.10;;;;;;;20.83;71.69;100484.80;93108;1209;86453;-70
2021/06/20 03:29:47;;;;;;;11.80;8.90;;;;;;;21.29;71.45;100488.97;93114;1213;74443;-70
2021/06/20 03:31:58;;;;;;;10.00;8.70;;;;;;;22.17;71.17;100491.25;93109;1208;81130;-72
2021/06/20 03:34:06;;;;;;;9.20;8.30;;;;;;;23.44;69.80;100484.55;93109;1215;65335;-70
2021/06/20 03:36:14;;;;;;;8.70;7.90;;;;;;;24.40;68.32;100482.72;93147;1208;70374;-71
2021/06/20 03:38:21;;;;;;;8.80;7.90;;;;;;;25.23;66.89;100483.06;93157;1208;86369;-62
2021/06/20 03:40:29;;;;;;;9.30;7.50;;;;;;;26.15;65.14;100484.19;93106;1209;75072;-61
2021/06/20 03:42:40;;;;;;;8.10;7.30;;;;;;;27.03;63.72;100478.31;93107;1208;81158;-61
2021/06/20 03:44:48;;;;;;;7.80;7.00;;;;;;;27.91;61.68;100467.34;93136;1208;67431;-73
2021/06/20 03:46:56;;;;;;;8.70;7.80;;;;;;;28.59;60.23;100462.86;93035;1213;68449;-70
2021/06/20 03:49:04;;;;;;;7.90;7.10;;;;;;;29.10;58.75;100459.90;93144;1208;85508;-70
2021/06/20 03:51:12;;;;;;;7.30;6.60;;;;;;;29.82;56.96;100457.21;93033;1214;74897;-71
2021/06/20 03:53:22;;;;;;;7.00;6.30;;;;;;;30.41;55.60;100460.77;93131;1208;81010;-69
2021/06/20 03:55:31;;;;;;;6.60;5.90;;;;;;;31.02;53.68;100457.94;92985;1211;65448;-69
2021/06/20 03:57:38;;;;;;;6.60;6.00;;;;;;;31.36;52.87;100460.83;93081;1208;69580;-69
2021/06/20 03:59:46;;;;;;;6.90;5.80;;;;;;;31.80;50.51;100459.73;93122;1209;86244;-61
2021/06/20 04:01:54;;;;;;;8.00;5.70;;;;;;;32.02;49.73;100456.80;93141;1209;75648;-61
2021/06/20 04:04:02;;;;;;;6.50;5.90;;;;;;;32.23;48.63;100444.91;93047;1208;81959;-61
2021/06/20 04:06:10;;;;;;;7.30;5.90;;;;;;;32.46;48.00;100437.95;93125;1213;65129;-62
2021/06/20 04:08:18;;;;;;;5.60;5.10;;;;;;;32.79;46.54;100452.99;93137;1209;68174;-71
2021/06/20 04:10:26;;;;;;;5.70;5.10;;;;;;;33.14;45.63;100453.66;93049;1215;85574;-70
2021/06/20 04:12:34;;;;;;;5.70;4.90;;;;;;;33.22;44.57;100456.41;93180;1208;75018;-69
2021/06/20 04:14:44;;;;;;;5.10;4.60;;;;;;;33.71;43.13;100456.73;92987;1211;82291;-61
2021/06/20 04:16:51;;;;;;;5.30;4.80;;;;;;;34.17;42.07;100450.10;93145;1208;67078;-61
2021/06/20 04:19:00;;;;;;;4.50;4.10;;;;;;;34.22;41.38;100452.68;93155;1208;67907;-62
2021/06/20 04:21:08;;;;;;;5.30;4.20;;;;;;;34.73;40.61;100454.09;93121;1209;85883;-61
2021/06/20 04:23:16;;;;;;;5.30;4.20;;;;;;;35.18;39.56;100460.47;93142;1209;73937;-68
2021/06/20 04:25:24;;;;;;;5.70;4.20;;;;;;;35.41;38.62;100458.78;93131;1209;80977;-70
2021/06/20 04:27:32;;;;;;;4.50;3.60;;;;;;;35.59;37.94;100469.80;93153;1208;67248;-70
2021/06/20 04:29:42;;;;;;;5.70;3.60;;;;;;;35.51;37.26;100472.36;93013;1212;68952;-71
2021/06/20 04:31:50;;;;;;;6.00;3.60;;;;;;;35.77;36.84;100471.13;93113;1209;85744;-72
2021/06/20 04:33:58;;;;;;;5.60;3.80;;;;;;;35.82;35.73;100474.52;93131;1209;73910;-70
2021/06/20 04:36:07;;;;;;;4.70;3.80;;;;;;;36.05;35.73;100464.39;93102;1208;81605;-71
2021/06/20 04:38:16;;;;;;;3.90;3.50;;;;;;;36.42;35.07;100470.66;93192;1203;65699;-71
2021/06/20 04:40:24;;;;;;;4.80;3.50;;;;;;;36.38;34.61;100464.11;93048;1208;68612;-70
2021/06/20 04:42:35;;;;;;;4.00;3.60;;;;;;;36.78;33.86;100464.01;93138;1208;85763;-71
2021/06/20 04:44:45;;;;;;;4.10;3.40;;;;;;;37.03;33.31;100467.48;93083;1208;74170;-71
2021/06/20 04:46:53;;;;;;;3.50;3.00;;;;;;;37.00;33.15;100459.76;92994;1211;81576;-69
2021/06/20 04:49:07;;;;;;;4.10;3.50;;;;;;;37.42;32.87;100459.95;93014;1208;66468;-69
2021/06/20 04:51:17;;;;;;;3.70;3.30;;;;;;;37.47;32.33;100454.85;93163;1208;68033;-69
2021/06/20 04:53:25;;;;;;;5.40;3.50;;;;;;;37.51;31.72;100461.41;93137;1208;84555;-69
2021/06/20 04:55:32;;;;;;;5.20;3.60;;;;;;;37.69;31.56;100462.59;92989;1209;73742;-70
2021/06/20 04:57:43;;;;;;;4.30;3.50;;;;;;;37.94;31.43;100456.73;93130;1208;80459;-70
2021/06/20 04:59:53;;;;;;;4.30;3.60;;;;;;;38.30;30.77;100454.22;93073;1209;67270;-61
2021/06/20 05:02:01;;;;;;;4.80;4.20;;;;;;;38.49;30.45;100450.56;93151;1208;68201;-61
2021/06/20 05:04:10;;;;;;;4.40;4.00;;;;;;;38.49;30.36;100444.91;93096;1208;85861;-61
2021/06/20 05:06:17;;;;;;;3.90;3.50;;;;;;;38.69;30.15;100452.14;93026;1208;74248;-60
2021/06/20 05:08:28;;;;;;;4.00;3.60;;;;;;;38.85;29.74;100452.03;92997;1215;81104;-63
2021/06/20 05:10:39;;;;;;;4.20;3.80;;;;;;;39.08;29.39;100454.83;93125;1209;66396;-60
2021/06/20 05:12:46;;;;;;;4.40;4.00;;;;;;;39.24;29.10;100458.34;93120;1208;69147;-62
2021/06/20 05:14:54;;;;;;;4.40;3.90;;;;;;;39.66;28.68;100461.83;93125;1208;85944;-63
2021/06/20 05:17:05;;;;;;;5.50;3.50;;;;;;;40.11;27.72;100451.51;93134;1208;75584;-60
2021/06/20 05:19:15;;;;;;;3.90;3.40;;;;;;;40.04;26.93;100440.88;93018;1208;81139;-70
2021/06/20 05:21:33;;;;;;;3.60;3.30;;;;;;;40.00;27.72;100440.82;93111;1208;66812;-71
2021/06/20 05:23:40;;;;;;;4.20;3.80;;;;;;;40.31;26.95;100442.42;93107;1208;70128;-62
2021/06/20 05:25:48;;;;;;;4.00;3.20;;;;;;;40.30;26.24;100442.82;93157;1208;87394;-62
2021/06/20 05:27:56;;;;;;;6.40;3.70;;;;;;;40.34;26.55;100435.16;93134;1208;75382;-62
2021/06/20 05:30:09;;;;;;;;;;;;;;;40.47;25.63;100425.17;93146;1208;81330;-70
2021/06/20 05:32:16;;;;;;;4.30;3.60;;;;;;;40.72;25.91;100426.24;93133;1209;66916;-70
2021/06/20 05:34:24;;;;;;;3.60;3.30;;;;;;;40.70;25.26;100423.00;93099;1208;69260;-63
2021/06/20 05:36:32;;;;;;;4.00;3.60;;;;;;;40.83;24.96;100414.99;93041;1213;85964;-61
2021/06/20 05:38:39;;;;;;;4.80;3.90;;;;;;;40.46;25.21;100430.05;93159;1208;74866;-61
2021/06/20 05:40:47;;;;;;;4.00;3.30;;;;;;;40.69;25.47;100429.03;92974;1213;82225;-61
2021/06/20 05:42:54;;;;;;;3.60;3.30;;;;;;;40.68;24.86;100431.08;93114;1213;65648;-61
2021/06/20 05:45:02;;;;;;;3.30;3.10;;;;;;;40.76;24.61;100432.77;93112;1208;68646;-61
2021/06/20 05:47:12;;;;;;;4.00;3.20;;;;;;;41.04;24.29;100433.00;93097;1214;85883;-61
2021/06/20 05:49:20;;;;;;;3.60;3.30;;;;;;;40.99;24.11;100438.22;93123;1207;73529;-70
2021/06/20 05:51:28;;;;;;;3.20;2.90;;;;;;;40.95;23.79;100440.23;93140;1212;81525;-69
2021/06/20 05:53:38;;;;;;;3.70;3.30;;;;;;;41.29;24.04;100447.34;93111;1209;65485;-62
2021/06/20 05:55:46;;;;;;;4.00;3.60;;;;;;;41.34;23.96;100449.05;93127;1215;68107;-61
2021/06/20 05:57:54;;;;;;;3.70;3.10;;;;;;;41.31;23.53;100444.95;93137;1209;85759;-62
2021/06/20 06:00:01;;;;;;;3.80;3.30;;;;;;;41.70;23.98;100448.83;93093;1208;75855;-63
2021/06/20 06:02:09;;;;;;;3.70;3.20;;;;;;;41.81;22.63;100448.94;93121;1208;80381;-65
2021/06/20 06:04:19;;;;;;;3.50;2.90;;;;;;;41.50;23.12;100439.02;93100;1208;67711;-66
2021/06/20 06:06:29;;;;;;;4.60;2.90;;;;;;;42.13;22.28;100421.45;93053;1208;70330;-66
2021/06/20 06:08:40;;;;;;;3.70;3.40;;;;;;;41.72;22.92;100425.74;93065;1208;86244;-65
2021/06/20 06:10:48;;;;;;;4.10;3.40;;;;;;;42.10;22.39;100430.77;93132;1208;74974;-65
2021/06/20 06:13:00;;;;;;;3.70;3.30;;;;;;;42.04;22.56;100437.23;93122;1208;80154;-65
2021/06/20 06:15:11;;;;;;;3.50;3.20;;;;;;;41.90;22.74;100440.02;93060;1213;65605;-67
2021/06/20 06:17:20;;;;;;;3.60;3.10;;;;;;;42.22;22.40;100433.25;93173;1209;67569;-67
2021/06/20 06:19:28;;;;;;;5.60;3.20;;;;;;;42.07;22.79;100440.09;93076;1208;86353;-66
2021/06/20 06:21:35;;;;;;;4.00;3.50;;;;;;;42.13;21.87;100447.02;93149;1209;74925;-66
2021/06/20 06:23:44;;;;;;;5.40;3.50;;;;;;;42.27;22.13;100452.77;93026;1213;82059;-65
2021/06/20 06:25:52;;;;;;;5.10;3.60;;;;;;;42.49;21.56;100455.64;93119;1208;67286;-64
2021/06/20 06:28:01;;;;;;;4.70;3.40;;;;;;;42.72;21.73;100459.74;93164;1208;69511;-68
2021/06/20 06:30:12;;;;;;;3.60;3.30;;;;;;;42.75;21.25;100458.12;93144;1208;86407;-65
2021/06/20 06:32:19;;;;;;;3.50;3.10;;;;;;;42.63;21.82;100456.52;93180;1208;76084;-65
2021/06/20 06:34:27;;;;;;;3.40;3.10;;;;;;;42.44;22.05;100456.04;93103;1208;81681;-67
2021/06/20 06:36:36;;;;;;;3.50;3.20;;;;;;;42.95;21.06;100459.38;93082;1209;67341;-66
2021/06/20 06:38:44;;;;;;;6.20;3.90;;;;;;;43.12;20.98;100464.25;93140;1215;69821;-66
2021/06/20 06:40:55;;;;;;;4.40;3.30;;;;;;;42.95;20.73;100461.41;93088;1208;85490;-65
2021/06/20 06:43:03;;;;;;;4.30;3.70;;;;;;;42.89;20.87;100463.81;93108;1208;75507;-66
2021/06/20 06:45:16;;;;;;;4.70;3.20;;;;;;;42.85;21.13;100468.70;93027;1213;81177;-65
2021/06/20 06:47:24;;;;;;;5.10;3.40;;;;;;;41.92;21.12;100463.95;93120;1208;66770;-67
2021/06/20 06:49:31;;;;;;;5.30;3.50;;;;;;;41.96;22.01;100459.12;93128;1209;67669;-65
2021/06/20 06:51:39;;;;;;;4.00;3.60;;;;;;;42.26;21.11;100453.97;93062;1208;84763;-66
2021/06/20 06:53:47;;;;;;;3.60;3.30;;;;;;;42.64;21.65;100454.45;93141;1205;74453;-64
2021/06/20 06:55:55;;;;;;;4.10;3.70;;;;;;;43.34;20.96;100457.34;93114;1208;81925;-66
2021/06/20 06:58:05;;;;;;;4.40;3.30;;;;;;;43.69;20.41;100458.44;92999;1211;66411;-66
2021/06/20 07:00:19;;;;;;;4.30;3.20;;;;;;;43.83;20.81;100461.27;93091;1208;68956;-66
2021/06/20 07:02:31;;;;;;;5.90;3.50;;;;;;;43.81;20.76;100463.73;93156;1208;87174;-65
2021/06/20 07:04:39;;;;;;;3.70;3.40;;;;;;;43.86;20.32;100463.30;93146;1215;75280;-66
2021/06/20 07:06:46;;;;;;;3.90;3.40;;;;;;;43.83;20.03;100458.42;93017;1208;81754;-65
2021/06/20 07:08:57;;;;;;;3.50;3.20;;;;;;;43.98;20.05;100468.55;93135;1206;65997;-65
2021/06/20 07:11:05;;;;;;;3.70;3.40;;;;;;;44.03;19.58;100465.25;93149;1206;68315;-67
2021/06/20 07:13:13;;;;;;;3.10;2.80;;;;;;;43.89;19.88;100462.47;93162;1206;84721;-65
2021/06/20 07:15:21;;;;;;;3.20;2.90;;;;;;;43.87;19.83;100462.08;93141;1207;75481;-64
2021/06/20 07:17:28;;;;;;;3.50;3.20;;;;;;;43.75;20.27;100457.65;93132;1208;80251;-66
2021/06/20 07:19:38;;;;;;;4.60;3.70;;;;;;;43.55;19.94;100455.64;93089;1214;67072;-65
2021/06/20 07:21:49;;;;;;;3.30;3.00;;;;;;;43.72;19.71;100455.59;93157;1208;69238;-65
2021/06/20 07:23:56;;;;;;;3.60;3.20;;;;;;;43.87;20.12;100450.69;93106;1208;85847;-66
2021/06/20 07:26:04;;;;;;;3.50;3.20;;;;;;;44.22;19.72;100449.72;93139;1209;74992;-66
2021/06/20 07:28:14;;;;;;;4.70;3.20;;;;;;;44.23;19.65;100428.55;93119;1208;80367;-65
2021/06/20 07:30:26;;;;;;;3.60;3.30;;;;;;;44.31;19.92;100435.83;93131;1208;67150;-66
2021/06/20 07:32:34;;;;;;;3.50;3.20;;;;;;;44.15;19.52;100449.77;93042;1211;68683;-67
2021/06/20 07:34:41;;;;;;;6.20;3.30;;;;;;;43.71;19.76;100438.91;93141;1207;85181;-66
2021/06/20 07:36:51;;;;;;;3.20;2.90;;;;;;;43.40;20.22;100440.66;93135;1208;73743;-66
2021/06/20 07:38:59;;;;;;;3.30;3.00;;;;;;;43.14;20.06;100436.20;93109;1208;81393;-65
2021/06/20 07:41:10;;;;;;;3.60;3.00;;;;;;;43.11;20.71;100442.70;93157;1206;67252;-67
2021/06/20 07:43:22;;;;;;;3.50;3.20;;;;;;;43.25;20.17;100445.53;93099;1208;69135;-66
2021/06/20 07:45:37;;;;;;;3.20;2.90;;;;;;;42.97;20.34;100439.87;93139;1208;85294;-66
2021/06/20 07:47:45;;;;;;;3.20;2.90;;;;;;;42.71;20.27;100445.95;93143;1208;76443;-65
2021/06/20 07:49:53;;;;;;;3.20;3.00;;;;;;;42.82;20.34;100433.38;93125;1208;81194;-65
2021/06/20 07:52:01;;;;;;;3.40;3.10;;;;;;;42.82;20.87;100439.05;93029;1213;65714;-66
2021/06/20 07:54:09;;;;;;;4.20;3.20;;;;;;;42.59;20.79;100438.63;93141;1208;69702;-66
2021/06/20 07:56:20;;;;;;;3.40;3.10;;;;;;;42.54;20.83;100446.71;93120;1213;87409;-66
2021/06/20 07:58:28;;;;;;;3.40;3.10;;;;;;;42.37;20.89;100441.81;93110;1208;74824;-65
2021/06/20 08:00:36;;;;;;;3.60;3.30;;;;;;;42.57;20.45;100443.09;93086;1208;81674;-69
2021/06/20 08:02:44;;;;;;;4.60;3.10;;;;;;;42.73;20.37;100444.33;93152;1208;66092;-66
2021/06/20 08:04:52;;;;;;;3.80;3.20;;;;;;;42.28;19.89;100436.52;93135;1208;68810;-67
2021/06/20 08:06:59;;;;;;;3.30;3.00;;;;;;;42.02;20.57;100446.17;93163;1209;86147;-65
2021/06/20 08:09:08;;;;;;;3.30;2.90;;;;;;;42.26;20.63;100436.92;93145;1208;76207;-68
2021/06/20 08:11:16;;;;;;;3.00;2.60;;;;;;;42.11;20.55;100440.90;93157;1213;82629;-68
2021/06/20 08:13:32;;;;;;;5.60;3.00;;;;;;;41.98;20.56;100439.65;93137;1208;67715;-67
2021/06/20 08:15:41;;;;;;;3.30;2.90;;;;;;;41.61;21.28;100442.72;93166;1208;67851;-60
2021/06/20 08:17:49;;;;;;;5.00;3.40;;;;;;;41.57;21.92;100443.90;93157;1208;86910;-60
2021/06/20 08:19:56;;;;;;;3.00;2.70;;;;;;;42.07;21.30;100433.59;93099;1214;75978;-64
2021/06/20 08:22:04;;;;;;;5.00;2.90;;;;;;;42.08;20.58;100427.53;93044;1208;81425;-61
2021/06/20 08:24:13;;;;;;;3.40;3.10;;;;;;;42.25;20.80;100437.34;93144;1208;66222;-61
2021/06/20 08:26:21;;;;;;;2.90;2.70;;;;;;;42.00;20.89;100431.56;93141;1208;67823;-60
2021/06/20 08:28:29;;;;;;;3.10;2.90;;;;;;;42.21;20.76;100425.97;93133;1203;84671;-60
2021/06/20 08:30:37;;;;;;;3.20;2.80;;;;;;;42.05;20.39;100430.35;93033;1216;74091;-60
2021/06/20 08:32:47;;;;;;;3.30;3.00;;;;;;;41.72;20.94;100431.42;93127;1208;80187;-60
2021/06/20 08:34:59;;;;;;;3.00;2.80;;;;;;;41.72;20.74;100437.09;93093;1204;65346;-62
2021/06/20 08:37:11;;;;;;;3.00;2.70;;;;;;;41.59;21.66;100435.83;93123;1208;69863;-62
2021/06/20 08:39:17;;;;;;;;;;;;;;;41.83;21.12;100435.15;93088;1208;86411;-72
2021/06/20 08:41:27;;;;;;;4.00;3.10;;;;;;;42.14;21.48;100427.98;93087;1210;74519;-72
2021/06/20 08:43:35;;;;;;;2.90;2.60;;;;;;;42.02;20.63;100436.83;93128;1210;82355;-70
2021/06/20 08:45:45;;;;;;;3.30;2.80;;;;;;;42.08;20.82;100430.38;93173;1213;66885;-72
2021/06/20 08:47:53;;;;;;;3.10;2.80;;;;;;;41.90;20.77;100432.32;93161;1213;70066;-71
2021/06/20 08:50:00;;;;;;;4.40;2.80;;;;;;;41.73;21.51;100438.73;93154;1213;85185;-71
2021/06/20 08:52:09;;;;;;;3.70;3.30;;;;;;;41.63;21.69;100433.80;93159;1215;74983;-73
2021/06/20 08:54:17;;;;;;;3.40;3.10;;;;;;;41.75;21.21;100436.33;93156;1206;80601;-73
2021/06/20 08:56:25;;;;;;;3.70;3.10;;;;;;;41.55;21.96;100435.80;93166;1208;66669;-72
2021/06/20 08:58:35;;;;;;;5.20;3.40;;;;;;;41.71;21.42;100438.30;93066;1207;70157;-70
2021/06/20 09:00:43;;;;;;;3.90;3.60;;;;;;;41.72;21.24;100437.09;93147;1213;85513;-74
2021/06/20 09:03:03;;;;;;;3.50;3.20;;;;;;;41.59;21.22;100435.83;93078;1212;75454;-82
2021/06/20 09:05:16;;;;;;;3.90;3.50;;;;;;;41.54;21.98;100434.16;93113;1208;81576;-71
2021/06/20 09:07:34;;;;;;;3.90;2.90;;;;;;;41.51;21.58;100432.11;93177;1206;65599;-71
2021/06/20 09:09:41;;;;;;;3.40;3.10;;;;;;;40.77;21.12;100431.55;93167;1209;67996;-70
2021/06/20 09:11:53;;;;;;;3.40;3.00;;;;;;;40.13;21.69;100432.93;93057;1213;84548;-70
2021/06/20 09:14:10;;;;;;;3.20;2.90;;;;;;;39.97;21.88;100430.27;93150;1208;74807;-69
2021/06/20 09:16:21;;;;;;;2.80;2.50;;;;;;;39.62;22.68;100429.80;93120;1208;81958;-71
2021/06/20 09:18:29;;;;;;;5.10;2.90;;;;;;;39.16;24.10;100428.30;93113;1208;65231;-68
2021/06/20 09:20:41;;;;;;;3.20;2.70;;;;;;;38.77;23.12;100422.85;93160;1208;68479;-69
2021/06/20 09:23:01;;;;;;;3.20;2.90;;;;;;;38.55;23.33;100420.82;93165;1208;86328;-69
2021/06/20 09:25:14;;;;;;;3.10;2.70;;;;;;;37.99;23.44;100419.74;93198;1208;75385;-69
2021/06/20 09:27:23;;;;;;;2.60;2.20;;;;;;;37.85;24.13;100427.88;93156;1208;82794;-69
2021/06/20 09:29:36;;;;;;;3.10;2.60;;;;;;;37.75;24.39;100440.56;93141;1208;65814;-72
2021/06/20 09:31:50;;;;;;;4.00;2.60;;;;;;;37.46;24.36;100433.50;93153;1208;68780;-72
2021/06/20 09:34:10;;;;;;;3.00;2.30;;;;;;;37.16;24.38;100440.83;93040;1208;85875;-70
2021/06/20 09:36:29;;;;;;;2.90;2.60;;;;;;;36.79;24.85;100434.64;93140;1213;74996;-69
2021/06/20 09:38:42;;;;;;;3.20;2.40;;;;;;;36.67;25.64;100420.68;93168;1206;80399;-69
2021/06/20 09:40:54;;;;;;;3.60;3.00;;;;;;;36.39;25.36;100419.91;93115;1209;66447;-69
2021/06/20 09:43:16;;;;;;;3.10;2.50;;;;;;;36.22;26.29;100423.05;93099;1208;68280;-63
2021/06/20 09:45:34;;;;;;;3.50;2.40;;;;;;;36.13;26.61;100428.84;93134;1208;85873;-72
2021/06/20 09:47:44;;;;;;;2.90;2.70;;;;;;;36.00;27.40;100413.17;93157;1210;74692;-70
2021/06/20 09:49:56;;;;;;;5.10;2.50;;;;;;;35.95;26.66;100413.44;93147;1207;82321;-69
2021/06/20 09:52:05;;;;;;;3.10;2.70;;;;;;;35.91;26.61;100420.94;93147;1208;67140;-71
2021/06/20 09:54:16;;;;;;;4.70;2.70;;;;;;;35.77;26.57;100417.71;93128;1208;69684;-72
2021/06/20 09:56:28;;;;;;;3.40;2.80;;;;;;;35.51;27.29;100418.14;93160;1205;84821;-68
2021/06/20 09:58:35;;;;;;;3.00;2.80;;;;;;;35.59;27.73;100403.16;93131;1208;75570;-73
2021/06/20 10:00:45;;;;;;;4.60;2.60;;;;;;;35.46;27.26;100407.94;93088;1209;81256;-71